sensor_id;sensor_type;location;lat;lon;timestamp;temperature;humidity
7902;DHT22;3996;49.674;10.716;2022-12-11T00:00:43;0.40;60.40
7902;DHT22;3996;49.674;10.716;2022-12-11T00:03:09;0.40;60.00
7902;DHT22;3996;49.674;10.716;2022-12-11T00:05:40;0.40;60.90
7902;DHT22;3996;49.674;10.716;2022-12-11T00:08:06;0.40;60.90
7902;DHT22;3996;49.674;10.716;2022-12-11T00:10:32;0.40;61.50
7902;DHT22;3996;49.674;10.716;2022-12-11T00:12:58;0.50;62.10
7902;DHT22;3996;49.674;10.716;2022-12-11T00:15:23;0.50;61.80
7902;DHT22;3996;49.674;10.716;2022-12-11T00:17:49;0.40;60.50
7902;DHT22;3996;49.674;10.716;2022-12-11T00:20:14;0.40;60.90
7902;DHT22;3996;49.674;10.716;2022-12-11T00:22:40;0.40;60.90
7902;DHT22;3996;49.674;10.716;2022-12-11T00:25:06;0.40;60.80
7902;DHT22;3996;49.674;10.716;2022-12-11T00:27:32;0.60;60.30
7902;DHT22;3996;49.674;10.716;2022-12-11T00:29:57;0.60;59.90
7902;DHT22;3996;49.674;10.716;2022-12-11T00:32:23;0.70;60.00
7902;DHT22;3996;49.674;10.716;2022-12-11T00:34:49;0.60;59.20
7902;DHT22;3996;49.674;10.716;2022-12-11T00:37:15;0.60;59.50
7902;DHT22;3996;49.674;10.716;2022-12-11T00:39:40;0.50;60.10
7902;DHT22;3996;49.674;10.716;2022-12-11T00:42:06;0.50;60.50
7902;DHT22;3996;49.674;10.716;2022-12-11T00:44:32;0.50;60.70
7902;DHT22;3996;49.674;10.716;2022-12-11T00:46:58;0.60;60.70
7902;DHT22;3996;49.674;10.716;2022-12-11T00:49:23;0.70;61.00
7902;DHT22;3996;49.674;10.716;2022-12-11T00:51:49;0.70;60.80
7902;DHT22;3996;49.674;10.716;2022-12-11T00:54:15;0.80;60.50
7902;DHT22;3996;49.674;10.716;2022-12-11T00:56:40;0.70;59.60
7902;DHT22;3996;49.674;10.716;2022-12-11T00:59:06;0.60;60.50
7902;DHT22;3996;49.674;10.716;2022-12-11T01:01:32;0.70;60.90
7902;DHT22;3996;49.674;10.716;2022-12-11T01:03:57;0.70;60.50
7902;DHT22;3996;49.674;10.716;2022-12-11T01:06:25;0.70;60.30
7902;DHT22;3996;49.674;10.716;2022-12-11T01:08:51;0.70;60.40
7902;DHT22;3996;49.674;10.716;2022-12-11T01:11:36;0.70;60.50
7902;DHT22;3996;49.674;10.716;2022-12-11T01:14:02;0.60;60.40
7902;DHT22;3996;49.674;10.716;2022-12-11T01:16:27;0.70;61.10
7902;DHT22;3996;49.674;10.716;2022-12-11T01:18:53;0.70;60.20
7902;DHT22;3996;49.674;10.716;2022-12-11T01:21:18;0.70;60.70
7902;DHT22;3996;49.674;10.716;2022-12-11T01:23:44;0.70;60.60
7902;DHT22;3996;49.674;10.716;2022-12-11T01:26:13;0.80;60.00
7902;DHT22;3996;49.674;10.716;2022-12-11T01:28:40;0.80;60.00
7902;DHT22;3996;49.674;10.716;2022-12-11T01:31:13;0.70;59.90
7902;DHT22;3996;49.674;10.716;2022-12-11T01:33:39;0.70;61.20
7902;DHT22;3996;49.674;10.716;2022-12-11T01:36:17;0.70;60.90
7902;DHT22;3996;49.674;10.716;2022-12-11T01:38:43;0.70;61.20
7902;DHT22;3996;49.674;10.716;2022-12-11T01:41:09;0.70;61.00
7902;DHT22;3996;49.674;10.716;2022-12-11T01:46:39;0.70;61.40
7902;DHT22;3996;49.674;10.716;2022-12-11T01:49:10;0.70;60.60
7902;DHT22;3996;49.674;10.716;2022-12-11T01:51:41;0.60;60.60
7902;DHT22;3996;49.674;10.716;2022-12-11T01:54:12;0.60;60.40
7902;DHT22;3996;49.674;10.716;2022-12-11T01:56:41;0.60;60.30
7902;DHT22;3996;49.674;10.716;2022-12-11T01:59:08;0.50;60.20
7902;DHT22;3996;49.674;10.716;2022-12-11T02:01:47;0.50;60.60
7902;DHT22;3996;49.674;10.716;2022-12-11T02:04:15;0.50;61.50
7902;DHT22;3996;49.674;10.716;2022-12-11T02:06:44;0.40;60.00
7902;DHT22;3996;49.674;10.716;2022-12-11T02:09:13;0.40;60.70
7902;DHT22;3996;49.674;10.716;2022-12-11T02:14:23;0.40;61.00
7902;DHT22;3996;49.674;10.716;2022-12-11T02:17:02;0.50;61.10
7902;DHT22;3996;49.674;10.716;2022-12-11T02:28:21;0.60;60.90
7902;DHT22;3996;49.674;10.716;2022-12-11T02:30:59;0.70;60.70
7902;DHT22;3996;49.674;10.716;2022-12-11T02:33:35;0.60;60.20
7902;DHT22;3996;49.674;10.716;2022-12-11T02:36:04;0.60;60.00
7902;DHT22;3996;49.674;10.716;2022-12-11T02:38:35;0.70;59.40
7902;DHT22;3996;49.674;10.716;2022-12-11T02:41:04;0.60;58.70
7902;DHT22;3996;49.674;10.716;2022-12-11T02:43:31;0.60;58.70
7902;DHT22;3996;49.674;10.716;2022-12-11T02:45:59;0.50;58.60
7902;DHT22;3996;49.674;10.716;2022-12-11T02:48:25;0.60;59.40
7902;DHT22;3996;49.674;10.716;2022-12-11T02:50:55;0.60;59.50
7902;DHT22;3996;49.674;10.716;2022-12-11T02:53:25;0.60;59.50
7902;DHT22;3996;49.674;10.716;2022-12-11T02:55:56;0.50;59.20
7902;DHT22;3996;49.674;10.716;2022-12-11T02:58:27;0.60;60.20
7902;DHT22;3996;49.674;10.716;2022-12-11T03:00:53;0.60;58.80
7902;DHT22;3996;49.674;10.716;2022-12-11T03:03:19;0.50;58.70
7902;DHT22;3996;49.674;10.716;2022-12-11T03:05:45;0.50;58.60
7902;DHT22;3996;49.674;10.716;2022-12-11T03:08:12;0.50;59.20
7902;DHT22;3996;49.674;10.716;2022-12-11T03:10:44;0.60;58.90
7902;DHT22;3996;49.674;10.716;2022-12-11T03:13:18;0.60;59.40
7902;DHT22;3996;49.674;10.716;2022-12-11T03:18:39;0.50;59.40
7902;DHT22;3996;49.674;10.716;2022-12-11T03:24:19;0.60;59.10
7902;DHT22;3996;49.674;10.716;2022-12-11T03:26:58;0.50;58.60
7902;DHT22;3996;49.674;10.716;2022-12-11T03:29:37;0.50;59.00
7902;DHT22;3996;49.674;10.716;2022-12-11T03:32:18;0.50;59.80
7902;DHT22;3996;49.674;10.716;2022-12-11T03:34:55;0.60;59.50
7902;DHT22;3996;49.674;10.716;2022-12-11T03:37:22;0.50;59.90
7902;DHT22;3996;49.674;10.716;2022-12-11T03:39:54;0.50;59.90
7902;DHT22;3996;49.674;10.716;2022-12-11T03:42:23;0.50;60.20
7902;DHT22;3996;49.674;10.716;2022-12-11T03:44:49;0.50;59.00
7902;DHT22;3996;49.674;10.716;2022-12-11T03:47:19;0.40;59.60
7902;DHT22;3996;49.674;10.716;2022-12-11T03:49:47;0.40;59.80
7902;DHT22;3996;49.674;10.716;2022-12-11T03:52:14;0.30;60.40
7902;DHT22;3996;49.674;10.716;2022-12-11T03:54:43;0.30;60.40
7902;DHT22;3996;49.674;10.716;2022-12-11T03:57:13;0.30;60.80
7902;DHT22;3996;49.674;10.716;2022-12-11T03:59:39;0.40;61.20
7902;DHT22;3996;49.674;10.716;2022-12-11T04:02:05;0.50;61.30
7902;DHT22;3996;49.674;10.716;2022-12-11T04:04:39;0.50;60.40
7902;DHT22;3996;49.674;10.716;2022-12-11T04:07:06;0.50;59.80
7902;DHT22;3996;49.674;10.716;2022-12-11T04:09:31;0.50;59.90
7902;DHT22;3996;49.674;10.716;2022-12-11T04:11:57;0.50;59.00
7902;DHT22;3996;49.674;10.716;2022-12-11T04:14:22;0.50;58.60
7902;DHT22;3996;49.674;10.716;2022-12-11T04:17:07;0.50;59.20
7902;DHT22;3996;49.674;10.716;2022-12-11T04:19:32;0.40;59.00
7902;DHT22;3996;49.674;10.716;2022-12-11T04:22:17;0.40;59.40
7902;DHT22;3996;49.674;10.716;2022-12-11T04:25:04;0.50;59.00
7902;DHT22;3996;49.674;10.716;2022-12-11T04:27:32;0.40;58.90
7902;DHT22;3996;49.674;10.716;2022-12-11T04:30:19;0.50;59.20
7902;DHT22;3996;49.674;10.716;2022-12-11T04:32:45;0.40;58.60
7902;DHT22;3996;49.674;10.716;2022-12-11T04:35:12;0.30;58.50
7902;DHT22;3996;49.674;10.716;2022-12-11T04:37:38;0.20;59.20
7902;DHT22;3996;49.674;10.716;2022-12-11T04:40:06;0.20;59.00
7902;DHT22;3996;49.674;10.716;2022-12-11T04:42:32;0.30;59.50
7902;DHT22;3996;49.674;10.716;2022-12-11T04:44:58;0.30;58.60
7902;DHT22;3996;49.674;10.716;2022-12-11T04:47:23;0.40;57.10
7902;DHT22;3996;49.674;10.716;2022-12-11T04:49:49;0.30;56.90
7902;DHT22;3996;49.674;10.716;2022-12-11T04:52:15;0.30;57.20
7902;DHT22;3996;49.674;10.716;2022-12-11T04:54:41;0.30;57.70
7902;DHT22;3996;49.674;10.716;2022-12-11T04:57:07;0.40;57.20
7902;DHT22;3996;49.674;10.716;2022-12-11T04:59:32;0.40;56.70
7902;DHT22;3996;49.674;10.716;2022-12-11T05:01:58;0.40;55.60
7902;DHT22;3996;49.674;10.716;2022-12-11T05:04:24;0.40;57.00
7902;DHT22;3996;49.674;10.716;2022-12-11T05:06:50;0.40;56.30
7902;DHT22;3996;49.674;10.716;2022-12-11T05:09:15;0.40;56.50
7902;DHT22;3996;49.674;10.716;2022-12-11T05:11:41;0.40;55.80
7902;DHT22;3996;49.674;10.716;2022-12-11T05:14:07;0.50;55.20
7902;DHT22;3996;49.674;10.716;2022-12-11T05:16:33;0.50;54.80
7902;DHT22;3996;49.674;10.716;2022-12-11T05:18:58;0.40;55.90
7902;DHT22;3996;49.674;10.716;2022-12-11T05:21:24;0.40;56.00
7902;DHT22;3996;49.674;10.716;2022-12-11T05:23:49;0.40;54.70
7902;DHT22;3996;49.674;10.716;2022-12-11T05:26:19;0.20;53.90
7902;DHT22;3996;49.674;10.716;2022-12-11T05:28:49;0.10;54.30
7902;DHT22;3996;49.674;10.716;2022-12-11T05:31:17;0.10;53.90
7902;DHT22;3996;49.674;10.716;2022-12-11T05:33:44;0.00;53.70
7902;DHT22;3996;49.674;10.716;2022-12-11T05:36:22;0.10;54.50
7902;DHT22;3996;49.674;10.716;2022-12-11T05:38:48;0.00;53.60
7902;DHT22;3996;49.674;10.716;2022-12-11T05:41:17;-0.10;53.80
7902;DHT22;3996;49.674;10.716;2022-12-11T05:43:43;-0.10;53.70
7902;DHT22;3996;49.674;10.716;2022-12-11T05:46:14;-0.30;53.50
7902;DHT22;3996;49.674;10.716;2022-12-11T05:48:41;-0.30;55.10
7902;DHT22;3996;49.674;10.716;2022-12-11T05:51:08;-0.30;54.30
7902;DHT22;3996;49.674;10.716;2022-12-11T05:53:37;-0.20;53.80
7902;DHT22;3996;49.674;10.716;2022-12-11T05:56:09;-0.20;52.90
7902;DHT22;3996;49.674;10.716;2022-12-11T05:58:35;-0.20;53.50
7902;DHT22;3996;49.674;10.716;2022-12-11T06:01:01;-0.20;52.90
7902;DHT22;3996;49.674;10.716;2022-12-11T06:03:31;-0.20;53.30
7902;DHT22;3996;49.674;10.716;2022-12-11T06:05:56;-0.20;52.70
7902;DHT22;3996;49.674;10.716;2022-12-11T06:08:22;-0.30;53.10
7902;DHT22;3996;49.674;10.716;2022-12-11T06:10:49;-0.50;53.60
7902;DHT22;3996;49.674;10.716;2022-12-11T06:13:15;-0.40;53.30
7902;DHT22;3996;49.674;10.716;2022-12-11T06:15:41;-0.50;53.10
7902;DHT22;3996;49.674;10.716;2022-12-11T06:18:06;-0.40;53.70
7902;DHT22;3996;49.674;10.716;2022-12-11T06:20:33;-0.40;53.80
7902;DHT22;3996;49.674;10.716;2022-12-11T06:22:59;-0.50;53.80
7902;DHT22;3996;49.674;10.716;2022-12-11T06:25:25;-0.50;53.50
7902;DHT22;3996;49.674;10.716;2022-12-11T06:27:51;-0.60;53.50
7902;DHT22;3996;49.674;10.716;2022-12-11T06:30:16;-0.70;53.70
7902;DHT22;3996;49.674;10.716;2022-12-11T06:32:43;-0.60;53.50
7902;DHT22;3996;49.674;10.716;2022-12-11T06:35:09;-0.70;53.50
7902;DHT22;3996;49.674;10.716;2022-12-11T06:37:36;-0.70;53.50
7902;DHT22;3996;49.674;10.716;2022-12-11T06:40:03;-0.70;53.50
7902;DHT22;3996;49.674;10.716;2022-12-11T06:42:29;-0.70;53.90
7902;DHT22;3996;49.674;10.716;2022-12-11T06:44:55;-0.60;54.70
7902;DHT22;3996;49.674;10.716;2022-12-11T06:47:27;-0.60;54.10
7902;DHT22;3996;49.674;10.716;2022-12-11T06:49:54;-0.50;53.60
7902;DHT22;3996;49.674;10.716;2022-12-11T06:52:21;-0.50;53.80
7902;DHT22;3996;49.674;10.716;2022-12-11T06:54:47;-0.60;53.50
7902;DHT22;3996;49.674;10.716;2022-12-11T06:57:13;-0.60;53.50
7902;DHT22;3996;49.674;10.716;2022-12-11T06:59:38;-0.60;53.50
7902;DHT22;3996;49.674;10.716;2022-12-11T07:02:04;-0.60;53.80
7902;DHT22;3996;49.674;10.716;2022-12-11T07:04:30;-0.70;54.20
7902;DHT22;3996;49.674;10.716;2022-12-11T07:06:56;-0.70;54.10
7902;DHT22;3996;49.674;10.716;2022-12-11T07:09:22;-0.70;54.30
7902;DHT22;3996;49.674;10.716;2022-12-11T07:11:51;-0.60;54.20
7902;DHT22;3996;49.674;10.716;2022-12-11T07:14:17;-0.60;53.10
7902;DHT22;3996;49.674;10.716;2022-12-11T07:16:42;-0.70;53.30
7902;DHT22;3996;49.674;10.716;2022-12-11T07:19:08;-0.60;53.60
7902;DHT22;3996;49.674;10.716;2022-12-11T07:21:34;-0.60;52.90
7902;DHT22;3996;49.674;10.716;2022-12-11T07:23:59;-0.60;53.20
7902;DHT22;3996;49.674;10.716;2022-12-11T07:26:25;-0.70;52.90
7902;DHT22;3996;49.674;10.716;2022-12-11T07:28:51;-0.70;52.90
7902;DHT22;3996;49.674;10.716;2022-12-11T07:31:20;-0.70;53.00
7902;DHT22;3996;49.674;10.716;2022-12-11T07:33:46;-0.70;53.30
7902;DHT22;3996;49.674;10.716;2022-12-11T07:36:13;-0.60;53.30
7902;DHT22;3996;49.674;10.716;2022-12-11T07:38:39;-0.70;52.50
7902;DHT22;3996;49.674;10.716;2022-12-11T07:41:08;-0.50;52.70
7902;DHT22;3996;49.674;10.716;2022-12-11T07:43:35;-0.50;52.50
7902;DHT22;3996;49.674;10.716;2022-12-11T07:46:02;-0.50;53.30
7902;DHT22;3996;49.674;10.716;2022-12-11T07:48:28;-0.50;53.30
7902;DHT22;3996;49.674;10.716;2022-12-11T07:50:54;-0.50;53.60
7902;DHT22;3996;49.674;10.716;2022-12-11T07:53:19;-0.50;53.90
7902;DHT22;3996;49.674;10.716;2022-12-11T07:55:45;-0.50;54.50
7902;DHT22;3996;49.674;10.716;2022-12-11T07:58:10;-0.50;54.80
7902;DHT22;3996;49.674;10.716;2022-12-11T08:00:36;-0.50;54.40
7902;DHT22;3996;49.674;10.716;2022-12-11T08:03:02;-0.50;55.00
7902;DHT22;3996;49.674;10.716;2022-12-11T08:05:27;-0.40;54.90
7902;DHT22;3996;49.674;10.716;2022-12-11T08:07:53;-0.40;54.20
7902;DHT22;3996;49.674;10.716;2022-12-11T08:10:18;-0.50;54.90
7902;DHT22;3996;49.674;10.716;2022-12-11T08:12:44;-0.40;55.20
7902;DHT22;3996;49.674;10.716;2022-12-11T08:15:10;-0.40;55.00
7902;DHT22;3996;49.674;10.716;2022-12-11T08:17:35;-0.40;55.10
7902;DHT22;3996;49.674;10.716;2022-12-11T08:20:01;-0.40;55.50
7902;DHT22;3996;49.674;10.716;2022-12-11T08:22:26;-0.30;55.70
7902;DHT22;3996;49.674;10.716;2022-12-11T08:24:52;-0.40;56.20
7902;DHT22;3996;49.674;10.716;2022-12-11T08:27:18;-0.30;56.20
7902;DHT22;3996;49.674;10.716;2022-12-11T08:29:43;-0.20;56.00
7902;DHT22;3996;49.674;10.716;2022-12-11T08:32:10;-0.30;55.80
7902;DHT22;3996;49.674;10.716;2022-12-11T08:34:38;-0.30;55.70
7902;DHT22;3996;49.674;10.716;2022-12-11T08:37:03;-0.30;55.10
7902;DHT22;3996;49.674;10.716;2022-12-11T08:39:29;-0.30;55.10
7902;DHT22;3996;49.674;10.716;2022-12-11T08:41:55;-0.20;55.40
7902;DHT22;3996;49.674;10.716;2022-12-11T08:44:21;-0.20;54.00
7902;DHT22;3996;49.674;10.716;2022-12-11T08:46:49;-0.20;54.30
7902;DHT22;3996;49.674;10.716;2022-12-11T08:49:14;-0.10;54.00
7902;DHT22;3996;49.674;10.716;2022-12-11T08:51:40;-0.10;53.50
7902;DHT22;3996;49.674;10.716;2022-12-11T08:54:06;-0.10;52.70
7902;DHT22;3996;49.674;10.716;2022-12-11T08:56:31;-0.10;52.70
7902;DHT22;3996;49.674;10.716;2022-12-11T08:59:00;0.00;53.10
7902;DHT22;3996;49.674;10.716;2022-12-11T09:01:26;0.00;53.80
7902;DHT22;3996;49.674;10.716;2022-12-11T09:03:53;0.00;53.00
7902;DHT22;3996;49.674;10.716;2022-12-11T09:06:21;0.00;52.40
7902;DHT22;3996;49.674;10.716;2022-12-11T09:08:48;0.10;52.10
7902;DHT22;3996;49.674;10.716;2022-12-11T09:11:17;0.10;52.00
7902;DHT22;3996;49.674;10.716;2022-12-11T09:13:43;0.20;52.00
7902;DHT22;3996;49.674;10.716;2022-12-11T09:16:15;0.20;52.00
7902;DHT22;3996;49.674;10.716;2022-12-11T09:18:41;0.20;51.80
7902;DHT22;3996;49.674;10.716;2022-12-11T09:21:11;0.50;50.40
7902;DHT22;3996;49.674;10.716;2022-12-11T09:23:41;0.50;51.10
7902;DHT22;3996;49.674;10.716;2022-12-11T09:26:09;0.40;49.70
7902;DHT22;3996;49.674;10.716;2022-12-11T09:28:36;0.30;49.10
7902;DHT22;3996;49.674;10.716;2022-12-11T09:31:09;0.20;49.20
7902;DHT22;3996;49.674;10.716;2022-12-11T09:33:36;0.10;49.30
7902;DHT22;3996;49.674;10.716;2022-12-11T09:36:02;0.10;50.10
7902;DHT22;3996;49.674;10.716;2022-12-11T09:38:29;0.00;50.00
7902;DHT22;3996;49.674;10.716;2022-12-11T09:40:55;0.00;50.00
7902;DHT22;3996;49.674;10.716;2022-12-11T09:43:44;0.10;50.60
7902;DHT22;3996;49.674;10.716;2022-12-11T09:46:13;0.00;48.80
7902;DHT22;3996;49.674;10.716;2022-12-11T09:48:41;-0.10;48.40
7902;DHT22;3996;49.674;10.716;2022-12-11T09:51:21;-0.20;47.40
7902;DHT22;3996;49.674;10.716;2022-12-11T09:53:49;-0.10;48.50
7902;DHT22;3996;49.674;10.716;2022-12-11T09:59:14;-0.10;48.00
7902;DHT22;3996;49.674;10.716;2022-12-11T10:07:19;-0.30;47.10
7902;DHT22;3996;49.674;10.716;2022-12-11T10:10:08;-0.30;46.70
7902;DHT22;3996;49.674;10.716;2022-12-11T10:15:46;-0.30;46.80
7902;DHT22;3996;49.674;10.716;2022-12-11T10:18:16;-0.30;47.50
7902;DHT22;3996;49.674;10.716;2022-12-11T10:20:42;-0.30;47.30
7902;DHT22;3996;49.674;10.716;2022-12-11T10:23:39;-0.30;47.20
7902;DHT22;3996;49.674;10.716;2022-12-11T10:26:03;-0.30;48.20
7902;DHT22;3996;49.674;10.716;2022-12-11T10:28:30;-0.40;47.10
7902;DHT22;3996;49.674;10.716;2022-12-11T10:36:30;-0.40;47.60
7902;DHT22;3996;49.674;10.716;2022-12-11T10:38:55;-0.40;47.40
7902;DHT22;3996;49.674;10.716;2022-12-11T10:41:23;-0.40;46.80
7902;DHT22;3996;49.674;10.716;2022-12-11T10:43:54;-0.40;46.10
7902;DHT22;3996;49.674;10.716;2022-12-11T10:46:22;-0.40;46.90
7902;DHT22;3996;49.674;10.716;2022-12-11T10:48:53;-0.40;46.80
7902;DHT22;3996;49.674;10.716;2022-12-11T10:51:46;-0.40;46.50
7902;DHT22;3996;49.674;10.716;2022-12-11T10:54:41;-0.40;46.80
7902;DHT22;3996;49.674;10.716;2022-12-11T10:57:09;-0.30;45.10
7902;DHT22;3996;49.674;10.716;2022-12-11T10:59:47;-0.30;46.50
7902;DHT22;3996;49.674;10.716;2022-12-11T11:04:56;-0.20;46.30
7902;DHT22;3996;49.674;10.716;2022-12-11T11:07:25;-0.10;45.40
7902;DHT22;3996;49.674;10.716;2022-12-11T11:12:40;-0.20;45.40
7902;DHT22;3996;49.674;10.716;2022-12-11T11:15:21;-0.20;44.60
7902;DHT22;3996;49.674;10.716;2022-12-11T11:17:54;-0.20;44.00
7902;DHT22;3996;49.674;10.716;2022-12-11T11:20:28;-0.10;44.20
7902;DHT22;3996;49.674;10.716;2022-12-11T11:22:59;-0.10;44.20
7902;DHT22;3996;49.674;10.716;2022-12-11T11:25:28;-0.10;44.70
7902;DHT22;3996;49.674;10.716;2022-12-11T11:28:00;0.10;45.30
7902;DHT22;3996;49.674;10.716;2022-12-11T11:30:30;0.00;43.00
7902;DHT22;3996;49.674;10.716;2022-12-11T11:33:05;0.00;44.00
7902;DHT22;3996;49.674;10.716;2022-12-11T11:35:36;0.10;44.40
7902;DHT22;3996;49.674;10.716;2022-12-11T11:40:28;0.30;42.80
7902;DHT22;3996;49.674;10.716;2022-12-11T11:46:02;0.40;40.70
7902;DHT22;3996;49.674;10.716;2022-12-11T11:48:38;0.50;41.10
7902;DHT22;3996;49.674;10.716;2022-12-11T11:51:20;0.40;41.00
7902;DHT22;3996;49.674;10.716;2022-12-11T11:53:49;0.40;41.80
7902;DHT22;3996;49.674;10.716;2022-12-11T11:56:42;0.60;41.00
7902;DHT22;3996;49.674;10.716;2022-12-11T12:01:56;0.80;40.40
7902;DHT22;3996;49.674;10.716;2022-12-11T12:04:32;0.70;40.30
7902;DHT22;3996;49.674;10.716;2022-12-11T12:12:32;0.80;41.70
7902;DHT22;3996;49.674;10.716;2022-12-11T12:21:02;0.80;41.00
7902;DHT22;3996;49.674;10.716;2022-12-11T12:24:01;0.90;40.80
7902;DHT22;3996;49.674;10.716;2022-12-11T12:26:34;0.90;41.00
7902;DHT22;3996;49.674;10.716;2022-12-11T12:31:59;0.80;38.90
7902;DHT22;3996;49.674;10.716;2022-12-11T12:42:42;1.00;39.90
7902;DHT22;3996;49.674;10.716;2022-12-11T12:45:29;1.00;38.70
7902;DHT22;3996;49.674;10.716;2022-12-11T12:47:57;1.10;39.50
7902;DHT22;3996;49.674;10.716;2022-12-11T12:50:24;1.00;38.50
7902;DHT22;3996;49.674;10.716;2022-12-11T12:52:51;1.00;37.60
7902;DHT22;3996;49.674;10.716;2022-12-11T12:55:22;1.00;38.00
7902;DHT22;3996;49.674;10.716;2022-12-11T12:57:52;1.10;39.80
7902;DHT22;3996;49.674;10.716;2022-12-11T13:00:33;1.20;39.40
7902;DHT22;3996;49.674;10.716;2022-12-11T13:03:34;1.20;40.00
7902;DHT22;3996;49.674;10.716;2022-12-11T13:06:42;1.10;37.60
7902;DHT22;3996;49.674;10.716;2022-12-11T13:09:38;1.00;37.90
7902;DHT22;3996;49.674;10.716;2022-12-11T13:12:13;0.90;37.50
7902;DHT22;3996;49.674;10.716;2022-12-11T13:14:55;0.80;37.80
7902;DHT22;3996;49.674;10.716;2022-12-11T13:19:49;0.70;37.80
7902;DHT22;3996;49.674;10.716;2022-12-11T13:22:29;0.70;38.40
7902;DHT22;3996;49.674;10.716;2022-12-11T13:25:00;0.70;37.50
7902;DHT22;3996;49.674;10.716;2022-12-11T13:27:40;0.60;38.20
7902;DHT22;3996;49.674;10.716;2022-12-11T13:30:22;0.60;37.70
7902;DHT22;3996;49.674;10.716;2022-12-11T13:33:18;0.60;38.40
7902;DHT22;3996;49.674;10.716;2022-12-11T13:35:48;0.60;37.50
7902;DHT22;3996;49.674;10.716;2022-12-11T13:38:28;0.50;38.00
7902;DHT22;3996;49.674;10.716;2022-12-11T13:40:58;0.40;38.00
7902;DHT22;3996;49.674;10.716;2022-12-11T13:43:27;0.50;38.20
7902;DHT22;3996;49.674;10.716;2022-12-11T13:45:59;0.40;37.50
7902;DHT22;3996;49.674;10.716;2022-12-11T13:48:38;0.50;37.60
7902;DHT22;3996;49.674;10.716;2022-12-11T13:51:06;0.40;38.40
7902;DHT22;3996;49.674;10.716;2022-12-11T13:53:32;0.40;38.30
7902;DHT22;3996;49.674;10.716;2022-12-11T13:56:02;0.40;37.50
7902;DHT22;3996;49.674;10.716;2022-12-11T13:58:29;0.40;38.20
7902;DHT22;3996;49.674;10.716;2022-12-11T14:00:58;0.40;38.20
7902;DHT22;3996;49.674;10.716;2022-12-11T14:03:27;0.30;38.20
7902;DHT22;3996;49.674;10.716;2022-12-11T14:05:54;0.20;38.40
7902;DHT22;3996;49.674;10.716;2022-12-11T14:08:23;0.30;38.80
7902;DHT22;3996;49.674;10.716;2022-12-11T14:10:52;0.20;38.20
7902;DHT22;3996;49.674;10.716;2022-12-11T14:13:24;0.10;38.00
7902;DHT22;3996;49.674;10.716;2022-12-11T14:15:51;0.10;38.30
7902;DHT22;3996;49.674;10.716;2022-12-11T14:18:21;0.10;39.00
7902;DHT22;3996;49.674;10.716;2022-12-11T14:20:53;0.00;38.80
7902;DHT22;3996;49.674;10.716;2022-12-11T14:23:22;0.10;38.60
7902;DHT22;3996;49.674;10.716;2022-12-11T14:25:59;0.10;38.50
7902;DHT22;3996;49.674;10.716;2022-12-11T14:28:27;0.20;39.20
7902;DHT22;3996;49.674;10.716;2022-12-11T14:30:57;0.10;39.50
7902;DHT22;3996;49.674;10.716;2022-12-11T14:33:34;0.10;38.90
7902;DHT22;3996;49.674;10.716;2022-12-11T14:36:02;0.20;38.10
7902;DHT22;3996;49.674;10.716;2022-12-11T14:38:36;0.10;38.50
7902;DHT22;3996;49.674;10.716;2022-12-11T14:41:10;0.10;39.00
7902;DHT22;3996;49.674;10.716;2022-12-11T14:43:44;0.10;38.70
7902;DHT22;3996;49.674;10.716;2022-12-11T14:46:18;-0.10;38.80
7902;DHT22;3996;49.674;10.716;2022-12-11T14:48:51;-0.20;39.60
7902;DHT22;3996;49.674;10.716;2022-12-11T14:51:19;-0.20;39.80
7902;DHT22;3996;49.674;10.716;2022-12-11T14:53:50;-0.20;39.40
7902;DHT22;3996;49.674;10.716;2022-12-11T14:56:20;-0.20;39.60
7902;DHT22;3996;49.674;10.716;2022-12-11T14:59:01;-0.20;40.50
7902;DHT22;3996;49.674;10.716;2022-12-11T15:01:33;-0.20;40.40
7902;DHT22;3996;49.674;10.716;2022-12-11T15:04:03;-0.20;40.40
7902;DHT22;3996;49.674;10.716;2022-12-11T15:06:31;-0.10;40.60
7902;DHT22;3996;49.674;10.716;2022-12-11T15:09:09;-0.20;40.00
7902;DHT22;3996;49.674;10.716;2022-12-11T15:11:40;-0.20;40.60
7902;DHT22;3996;49.674;10.716;2022-12-11T15:14:10;-0.10;40.20
7902;DHT22;3996;49.674;10.716;2022-12-11T15:16:37;-0.20;40.90
7902;DHT22;3996;49.674;10.716;2022-12-11T15:19:04;-0.10;40.90
7902;DHT22;3996;49.674;10.716;2022-12-11T15:21:33;0.00;41.00
7902;DHT22;3996;49.674;10.716;2022-12-11T15:24:01;0.00;41.20
7902;DHT22;3996;49.674;10.716;2022-12-11T15:26:46;0.10;40.90
7902;DHT22;3996;49.674;10.716;2022-12-11T15:29:35;-0.10;41.00
7902;DHT22;3996;49.674;10.716;2022-12-11T15:32:14;-0.10;41.70
7902;DHT22;3996;49.674;10.716;2022-12-11T15:34:50;-0.10;41.40
7902;DHT22;3996;49.674;10.716;2022-12-11T15:39:42;0.00;42.90
7902;DHT22;3996;49.674;10.716;2022-12-11T15:42:10;0.00;42.70
7902;DHT22;3996;49.674;10.716;2022-12-11T15:44:39;-0.10;42.40
7902;DHT22;3996;49.674;10.716;2022-12-11T15:47:19;-0.10;42.30
7902;DHT22;3996;49.674;10.716;2022-12-11T15:49:45;-0.10;42.10
7902;DHT22;3996;49.674;10.716;2022-12-11T15:52:11;-0.10;42.20
7902;DHT22;3996;49.674;10.716;2022-12-11T15:54:36;-0.10;42.10
7902;DHT22;3996;49.674;10.716;2022-12-11T15:57:04;-0.20;42.50
7902;DHT22;3996;49.674;10.716;2022-12-11T15:59:30;-0.20;43.40
7902;DHT22;3996;49.674;10.716;2022-12-11T16:01:57;-0.10;43.40
7902;DHT22;3996;49.674;10.716;2022-12-11T16:04:22;-0.10;43.20
7902;DHT22;3996;49.674;10.716;2022-12-11T16:06:48;-0.20;42.70
7902;DHT22;3996;49.674;10.716;2022-12-11T16:09:14;-0.30;43.10
7902;DHT22;3996;49.674;10.716;2022-12-11T16:11:41;-0.20;42.80
7902;DHT22;3996;49.674;10.716;2022-12-11T16:14:06;-0.10;43.00
7902;DHT22;3996;49.674;10.716;2022-12-11T16:16:32;-0.10;43.00
7902;DHT22;3996;49.674;10.716;2022-12-11T16:18:57;-0.10;43.50
7902;DHT22;3996;49.674;10.716;2022-12-11T16:21:23;0.00;44.00
7902;DHT22;3996;49.674;10.716;2022-12-11T16:23:49;0.00;44.20
7902;DHT22;3996;49.674;10.716;2022-12-11T16:26:14;0.00;44.40
7902;DHT22;3996;49.674;10.716;2022-12-11T16:28:41;-0.10;45.10
7902;DHT22;3996;49.674;10.716;2022-12-11T16:31:11;0.00;44.50
7902;DHT22;3996;49.674;10.716;2022-12-11T16:33:37;0.00;44.30
7902;DHT22;3996;49.674;10.716;2022-12-11T16:36:14;-0.10;44.30
7902;DHT22;3996;49.674;10.716;2022-12-11T16:38:39;0.00;44.20
7902;DHT22;3996;49.674;10.716;2022-12-11T16:41:05;0.00;44.60
7902;DHT22;3996;49.674;10.716;2022-12-11T16:43:31;0.00;44.70
7902;DHT22;3996;49.674;10.716;2022-12-11T16:45:57;0.00;44.50
7902;DHT22;3996;49.674;10.716;2022-12-11T16:48:23;-0.20;44.50
7902;DHT22;3996;49.674;10.716;2022-12-11T16:50:52;-0.20;45.80
7902;DHT22;3996;49.674;10.716;2022-12-11T16:53:17;-0.10;45.60
7902;DHT22;3996;49.674;10.716;2022-12-11T16:55:43;-0.10;45.20
7902;DHT22;3996;49.674;10.716;2022-12-11T16:58:09;-0.20;45.60
7902;DHT22;3996;49.674;10.716;2022-12-11T17:00:35;-0.20;46.80
7902;DHT22;3996;49.674;10.716;2022-12-11T17:03:01;-0.30;47.10
7902;DHT22;3996;49.674;10.716;2022-12-11T17:05:26;-0.30;47.90
7902;DHT22;3996;49.674;10.716;2022-12-11T17:07:52;-0.30;48.30
7902;DHT22;3996;49.674;10.716;2022-12-11T17:10:18;-0.20;48.40
7902;DHT22;3996;49.674;10.716;2022-12-11T17:12:43;-0.10;48.30
7902;DHT22;3996;49.674;10.716;2022-12-11T17:15:09;-0.10;48.60
7902;DHT22;3996;49.674;10.716;2022-12-11T17:17:34;0.00;47.50
7902;DHT22;3996;49.674;10.716;2022-12-11T17:20:00;-0.10;48.90
7902;DHT22;3996;49.674;10.716;2022-12-11T17:22:26;0.00;48.30
7902;DHT22;3996;49.674;10.716;2022-12-11T17:24:51;0.00;48.30
7902;DHT22;3996;49.674;10.716;2022-12-11T17:27:17;0.00;48.30